Terminal Aerodrome Forecast
Issued by NWS

Home | Current Version | Previous Version | Text Only | Print | Product List | Glossary On
Versions: 1 2 3 4 5 6 7 8 9 10 11 12 13 14 15 16 17 18 19 20
000
FTUS42 KMLB 260500
TAFTIX
TAF
KTIX 260539Z 2606/2706 16008KT 3SM RA BR FEW006 SCT040 OVC100
      TEMPO 2606/2608 5SM -RA BR BKN004 OVC010
     FM260800 21012KT P6SM VCSH BKN004 OVC012
     FM261000 25015G23KT P6SM VCSH BKN010 OVC020
     FM261200 30017G25KT P6SM BKN012 OVC025
     FM261400 32014G22KT P6SM BKN025 OVC060
     FM261600 30012KT P6SM SCT030 BKN060 OVC250
      AMD NOT SKED 2606/2612=

USA.gov is the U.S. government's official web portal to all federal, state and local government web resources and services.